createdAt,value
2022-08-28T00:00:12.630Z,18.05
2022-08-28T00:02:40.874Z,18.01
2022-08-28T00:05:11.092Z,18.04
2022-08-28T00:07:38.879Z,17.99
2022-08-28T00:10:09.159Z,18.01
2022-08-28T00:12:37.805Z,17.97
2022-08-28T00:15:12.900Z,17.94
2022-08-28T00:17:40.935Z,17.94
2022-08-28T00:20:10.373Z,17.96
2022-08-28T00:22:39.209Z,17.98
2022-08-28T00:25:09.516Z,18.00
2022-08-28T00:27:52.528Z,18.04
2022-08-28T00:30:41.995Z,17.91
2022-08-28T00:33:17.228Z,17.90
2022-08-28T00:35:44.791Z,17.96
2022-08-28T00:38:14.264Z,17.99
2022-08-28T00:40:44.523Z,18.09
2022-08-28T00:43:25.037Z,18.06
2022-08-28T00:45:53.383Z,18.02
2022-08-28T00:48:21.125Z,18.14
2022-08-28T00:51:07.553Z,18.09
2022-08-28T00:53:35.062Z,18.17
2022-08-28T00:56:12.246Z,18.14
2022-08-28T00:58:43.481Z,18.12
2022-08-28T01:01:13.214Z,18.40
2022-08-28T01:03:41.166Z,18.30
2022-08-28T01:06:09.225Z,18.20
2022-08-28T01:08:40.857Z,18.11
2022-08-28T01:11:10.029Z,18.09
2022-08-28T01:13:41.502Z,18.07
2022-08-28T01:16:09.312Z,18.09
2022-08-28T01:18:37.474Z,18.16
2022-08-28T01:21:20.621Z,18.21
2022-08-28T01:23:53.388Z,18.13
2022-08-28T01:26:21.487Z,18.11
2022-08-28T01:28:49.080Z,18.15
2022-08-28T01:31:17.744Z,18.22
2022-08-28T01:33:46.378Z,18.13
2022-08-28T01:36:15.772Z,18.17
2022-08-28T01:38:46.321Z,18.09
2022-08-28T01:41:14.061Z,18.17
2022-08-28T01:43:42.868Z,18.12
2022-08-28T01:46:12.514Z,18.17
2022-08-28T01:48:43.827Z,18.23
2022-08-28T01:51:12.531Z,18.25
2022-08-28T01:53:41.280Z,18.17
2022-08-28T01:56:13.999Z,18.17
2022-08-28T01:58:41.871Z,18.18
2022-08-28T02:01:11.652Z,18.17
2022-08-28T02:03:39.605Z,18.12
2022-08-28T02:06:07.191Z,18.16
2022-08-28T02:08:34.616Z,18.16
2022-08-28T02:11:03.531Z,18.14
2022-08-28T02:13:30.889Z,18.03
2022-08-28T02:15:58.620Z,18.09
2022-08-28T02:18:26.134Z,18.09
2022-08-28T02:20:53.514Z,18.01
2022-08-28T02:23:21.153Z,17.95
2022-08-28T02:25:49.891Z,17.96
2022-08-28T02:28:18.382Z,17.87
2022-08-28T02:30:45.831Z,17.89
2022-08-28T02:33:13.375Z,17.86
2022-08-28T02:35:42.510Z,17.81
2022-08-28T02:38:10.567Z,17.71
2022-08-28T02:40:39.044Z,17.68
2022-08-28T02:43:07.348Z,17.67
2022-08-28T02:45:35.225Z,17.65
2022-08-28T02:48:04.624Z,17.74
2022-08-28T02:50:39.624Z,17.79
2022-08-28T02:53:07.371Z,17.82
2022-08-28T02:55:35.230Z,17.72
2022-08-28T02:58:02.669Z,17.63
2022-08-28T03:00:30.135Z,17.58
2022-08-28T03:02:57.672Z,17.52
2022-08-28T03:05:26.107Z,17.61
2022-08-28T03:07:55.773Z,17.75
2022-08-28T03:10:23.475Z,17.76
2022-08-28T03:12:51.775Z,17.57
2022-08-28T03:15:19.824Z,17.55
2022-08-28T03:17:47.841Z,17.64
2022-08-28T03:20:16.768Z,17.66
2022-08-28T03:23:02.782Z,17.56
2022-08-28T03:25:30.410Z,17.51
2022-08-28T03:27:57.947Z,17.64
2022-08-28T03:30:25.964Z,17.56
2022-08-28T03:32:54.070Z,17.52
2022-08-28T03:35:21.924Z,17.46
2022-08-28T03:37:49.312Z,17.42
2022-08-28T03:40:16.905Z,17.38
2022-08-28T03:42:53.046Z,17.38
2022-08-28T03:45:21.765Z,17.33
2022-08-28T03:47:49.662Z,17.33
2022-08-28T03:50:19.689Z,17.37
2022-08-28T03:52:47.613Z,17.32
2022-08-28T03:55:15.210Z,17.26
2022-08-28T03:57:42.890Z,17.34
2022-08-28T04:00:13.315Z,17.28
2022-08-28T04:02:42.339Z,17.27
2022-08-28T04:05:11.085Z,17.34
2022-08-28T04:07:39.483Z,17.28
2022-08-28T04:10:07.552Z,17.25
2022-08-28T04:12:36.038Z,17.19
2022-08-28T04:15:05.689Z,17.20
2022-08-28T04:17:36.844Z,17.15
2022-08-28T04:20:06.091Z,17.21
2022-08-28T04:22:33.685Z,17.12
2022-08-28T04:25:01.133Z,17.13
2022-08-28T04:27:28.714Z,17.13
2022-08-28T04:29:56.174Z,17.25
2022-08-28T04:32:23.722Z,17.42
2022-08-28T04:34:51.437Z,17.49
2022-08-28T04:37:18.910Z,17.50
2022-08-28T04:39:46.409Z,17.62
2022-08-28T04:42:14.765Z,17.45
2022-08-28T04:44:42.305Z,17.28
2022-08-28T04:47:10.149Z,17.25
2022-08-28T04:49:37.851Z,17.13
2022-08-28T04:52:05.565Z,17.25
2022-08-28T04:54:36.204Z,17.21
2022-08-28T04:57:06.461Z,17.20
2022-08-28T04:59:34.430Z,17.22
2022-08-28T05:02:02.075Z,17.15
2022-08-28T05:04:29.675Z,17.16
2022-08-28T05:06:57.109Z,17.19
2022-08-28T05:09:24.591Z,17.16
2022-08-28T05:11:53.471Z,17.22
2022-08-28T05:14:21.848Z,17.26
2022-08-28T05:16:52.789Z,17.28
2022-08-28T05:19:21.574Z,17.35
2022-08-28T05:21:49.173Z,17.37
2022-08-28T05:24:18.114Z,17.37
2022-08-28T05:26:48.186Z,17.31
2022-08-28T05:29:16.912Z,17.36
2022-08-28T05:31:44.785Z,17.43
2022-08-28T05:34:15.249Z,17.47
2022-08-28T05:36:42.734Z,17.55
2022-08-28T05:39:11.658Z,17.61
2022-08-28T05:41:42.435Z,17.67
2022-08-28T05:44:12.239Z,17.75
2022-08-28T05:46:43.635Z,17.79
2022-08-28T05:49:13.114Z,17.85
2022-08-28T05:51:42.265Z,17.96
2022-08-28T05:54:10.627Z,18.03
2022-08-28T05:56:40.754Z,18.06
2022-08-28T05:59:10.286Z,18.15
2022-08-28T06:01:46.747Z,18.22
2022-08-28T06:04:15.989Z,18.31
2022-08-28T06:06:44.207Z,18.42
2022-08-28T06:09:18.097Z,18.55
2022-08-28T06:11:46.569Z,18.60
2022-08-28T06:14:18.083Z,18.77
2022-08-28T06:16:49.871Z,18.93
2022-08-28T06:19:18.150Z,19.17
2022-08-28T06:21:48.117Z,19.36
2022-08-28T06:24:15.573Z,19.68
2022-08-28T06:26:43.070Z,19.94
2022-08-28T06:29:13.240Z,20.24
2022-08-28T06:31:40.628Z,20.34
2022-08-28T06:34:09.389Z,20.29
2022-08-28T06:36:40.272Z,20.54
2022-08-28T06:39:09.879Z,20.66
2022-08-28T06:41:42.967Z,20.81
2022-08-28T06:44:19.818Z,20.93
2022-08-28T06:46:49.982Z,21.03
2022-08-28T06:49:17.595Z,21.17
2022-08-28T06:51:45.056Z,21.17
2022-08-28T06:54:12.577Z,21.38
2022-08-28T06:56:40.040Z,21.52
2022-08-28T06:59:07.332Z,21.63
2022-08-28T07:01:37.062Z,21.69
2022-08-28T07:04:10.869Z,21.74
2022-08-28T07:06:41.770Z,22.01
2022-08-28T07:09:13.614Z,22.05
2022-08-28T07:11:46.657Z,22.37
2022-08-28T07:14:14.459Z,22.50
2022-08-28T07:16:41.922Z,22.59
2022-08-28T07:19:11.301Z,22.45
2022-08-28T07:21:44.718Z,22.46
2022-08-28T07:24:14.712Z,22.49
2022-08-28T07:26:43.712Z,22.45
2022-08-28T07:29:11.874Z,22.46
2022-08-28T07:31:42.260Z,22.38
2022-08-28T07:34:12.274Z,22.28
2022-08-28T07:36:41.203Z,22.34
2022-08-28T07:39:10.673Z,22.50
2022-08-28T07:41:40.336Z,22.59
2022-08-28T07:44:27.856Z,22.89
2022-08-28T07:46:57.403Z,23.17
2022-08-28T07:49:25.352Z,23.40
2022-08-28T07:51:54.039Z,23.56
2022-08-28T07:54:22.990Z,23.67
2022-08-28T07:56:50.944Z,23.69
2022-08-28T07:59:19.612Z,23.69
2022-08-28T08:01:48.602Z,23.94
2022-08-28T08:04:18.026Z,24.05
2022-08-28T08:06:46.918Z,24.22
2022-08-28T08:09:17.907Z,24.30
2022-08-28T08:11:47.346Z,24.36
2022-08-28T08:14:17.877Z,24.37
2022-08-28T08:16:46.722Z,24.53
2022-08-28T08:19:15.874Z,24.53
2022-08-28T08:21:46.060Z,24.64
2022-08-28T08:24:20.933Z,24.87
2022-08-28T08:26:59.888Z,24.81
2022-08-28T08:29:35.635Z,24.95
2022-08-28T08:32:07.151Z,25.08
2022-08-28T08:34:38.521Z,25.27
2022-08-28T08:37:07.197Z,25.33
2022-08-28T08:39:37.793Z,25.48
2022-08-28T08:42:18.538Z,25.59
2022-08-28T08:44:48.353Z,25.66
2022-08-28T08:47:25.090Z,25.75
2022-08-28T08:49:57.414Z,25.77
2022-08-28T08:52:53.096Z,26.01
2022-08-28T08:55:31.526Z,26.05
2022-08-28T08:58:11.378Z,26.01
2022-08-28T09:01:09.794Z,26.05
2022-08-28T09:04:00.563Z,25.95
2022-08-28T09:06:48.330Z,26.11
2022-08-28T09:09:30.734Z,26.43
2022-08-28T09:12:04.901Z,26.27
2022-08-28T09:14:44.241Z,26.36
2022-08-28T09:17:16.164Z,26.39
2022-08-28T09:19:43.619Z,26.22
2022-08-28T09:22:11.047Z,26.50
2022-08-28T09:24:41.259Z,26.70
2022-08-28T09:27:23.846Z,26.63
2022-08-28T09:29:58.204Z,26.70
2022-08-28T09:32:29.998Z,26.83
2022-08-28T09:35:06.372Z,26.80
2022-08-28T09:37:36.463Z,26.73
2022-08-28T09:40:54.616Z,26.92
2022-08-28T09:43:28.227Z,27.18
2022-08-28T09:46:04.936Z,27.11
2022-08-28T09:48:41.240Z,27.13
2022-08-28T09:51:30.492Z,27.44
2022-08-28T09:54:08.071Z,27.38
2022-08-28T09:56:39.997Z,26.96
2022-08-28T09:59:16.569Z,27.18
2022-08-28T10:01:48.773Z,27.33
2022-08-28T10:04:19.620Z,27.50
2022-08-28T10:07:21.614Z,27.68
2022-08-28T10:10:01.447Z,27.32
2022-08-28T10:12:34.932Z,27.26
2022-08-28T10:15:21.024Z,27.21
2022-08-28T10:17:58.746Z,27.26
2022-08-28T10:20:55.141Z,26.96
2022-08-28T10:23:45.435Z,26.91
2022-08-28T10:26:34.852Z,26.59
2022-08-28T10:29:18.846Z,26.84
2022-08-28T10:32:03.837Z,26.82
2022-08-28T10:34:53.201Z,27.01
2022-08-28T10:37:45.043Z,27.09
2022-08-28T10:40:23.095Z,26.98
2022-08-28T10:42:59.404Z,26.86
2022-08-28T10:45:35.916Z,27.38
2022-08-28T10:48:27.834Z,27.42
2022-08-28T10:51:37.602Z,27.23
2022-08-28T10:54:33.600Z,27.72
2022-08-28T10:57:19.553Z,27.81
2022-08-28T10:59:58.506Z,28.11
2022-08-28T11:02:37.584Z,28.20
2022-08-28T11:05:05.977Z,28.14
2022-08-28T11:08:04.345Z,28.03
2022-08-28T11:10:42.539Z,28.05
2022-08-28T11:13:16.303Z,28.15
2022-08-28T11:15:52.230Z,28.01
2022-08-28T11:18:42.461Z,27.98
2022-08-28T11:21:30.296Z,28.16
2022-08-28T11:24:09.772Z,27.40
2022-08-28T11:27:12.735Z,27.75
2022-08-28T11:30:05.540Z,28.04
2022-08-28T11:32:32.886Z,28.26
2022-08-28T11:35:26.686Z,27.67
2022-08-28T11:37:55.008Z,28.05
2022-08-28T11:40:28.571Z,27.79
2022-08-28T11:43:30.306Z,28.20
2022-08-28T11:46:00.656Z,27.71
2022-08-28T11:48:37.890Z,28.17
2022-08-28T11:51:17.265Z,28.34
2022-08-28T11:54:23.276Z,28.46
2022-08-28T11:57:28.480Z,28.40
2022-08-28T12:00:23.323Z,28.43
2022-08-28T12:02:54.157Z,28.43
2022-08-28T12:05:41.941Z,28.50
2022-08-28T12:08:36.404Z,28.61
2022-08-28T12:11:03.996Z,28.62
2022-08-28T12:13:54.908Z,28.46
2022-08-28T12:16:26.901Z,28.95
2022-08-28T12:18:54.393Z,29.15
2022-08-28T12:21:26.059Z,29.09
2022-08-28T12:24:08.947Z,28.86
2022-08-28T12:26:43.677Z,29.22
2022-08-28T12:29:34.104Z,29.36
2022-08-28T12:32:30.541Z,29.16
2022-08-28T12:34:58.160Z,28.93
2022-08-28T12:37:36.846Z,28.82
2022-08-28T12:40:30.316Z,28.35
2022-08-28T12:43:03.972Z,28.64
2022-08-28T12:45:45.359Z,28.93
2022-08-28T12:48:22.841Z,29.12
2022-08-28T12:51:24.760Z,29.28
2022-08-28T12:53:58.698Z,29.31
2022-08-28T12:56:34.056Z,29.33
2022-08-28T12:59:35.320Z,29.17
2022-08-28T13:02:11.574Z,28.82
2022-08-28T13:04:44.411Z,28.69
2022-08-28T13:07:17.918Z,28.46
2022-08-28T13:09:50.363Z,28.38
2022-08-28T13:12:29.039Z,28.54
2022-08-28T13:15:24.370Z,28.75
2022-08-28T13:17:53.099Z,28.75
2022-08-28T13:20:27.544Z,28.60
2022-08-28T13:22:56.694Z,28.86
2022-08-28T13:25:31.312Z,28.85
2022-08-28T13:28:21.388Z,28.88
2022-08-28T13:30:59.327Z,29.15
2022-08-28T13:33:27.218Z,28.80
2022-08-28T13:35:55.191Z,28.80
2022-08-28T13:38:25.033Z,29.00
2022-08-28T13:41:03.441Z,29.29
2022-08-28T13:43:45.309Z,29.38
2022-08-28T13:46:13.051Z,29.55
2022-08-28T13:48:40.447Z,29.50
2022-08-28T13:51:11.247Z,29.25
2022-08-28T13:53:40.452Z,29.38
2022-08-28T13:56:07.932Z,29.47
2022-08-28T13:58:35.407Z,29.65
2022-08-28T14:01:03.135Z,29.67
2022-08-28T14:03:37.526Z,29.70
2022-08-28T14:06:11.233Z,29.29
2022-08-28T14:08:40.724Z,29.55
2022-08-28T14:11:12.610Z,29.45
2022-08-28T14:13:46.871Z,29.28
2022-08-28T14:16:25.230Z,29.17
2022-08-28T14:18:53.238Z,29.34
2022-08-28T14:21:24.694Z,29.63
2022-08-28T14:23:52.322Z,29.27
2022-08-28T14:26:19.731Z,29.16
2022-08-28T14:28:47.371Z,29.39
2022-08-28T14:31:15.725Z,29.45
2022-08-28T14:33:46.815Z,29.50
2022-08-28T14:36:18.973Z,29.46
2022-08-28T14:38:47.053Z,29.53
2022-08-28T14:41:15.055Z,29.45
2022-08-28T14:43:42.533Z,29.31
2022-08-28T14:46:19.223Z,29.45
2022-08-28T14:48:47.990Z,29.44
2022-08-28T14:51:17.292Z,29.52
2022-08-28T14:53:45.003Z,29.65
2022-08-28T14:56:12.484Z,29.57
2022-08-28T14:58:39.979Z,29.35
2022-08-28T15:01:07.556Z,29.52
2022-08-28T15:03:35.258Z,29.21
2022-08-28T15:06:06.286Z,28.86
2022-08-28T15:08:35.073Z,29.00
2022-08-28T15:11:24.141Z,28.84
2022-08-28T15:13:52.742Z,28.74
2022-08-28T15:16:29.667Z,28.82
2022-08-28T15:18:59.631Z,28.66
2022-08-28T15:21:34.271Z,28.79
2022-08-28T15:24:03.767Z,29.02
2022-08-28T15:26:32.798Z,29.26
2022-08-28T15:29:03.000Z,29.14
2022-08-28T15:31:34.654Z,29.03
2022-08-28T15:34:13.431Z,28.97
2022-08-28T15:36:43.276Z,28.95
2022-08-28T15:39:29.803Z,28.91
2022-08-28T15:41:58.350Z,28.72
2022-08-28T15:44:26.293Z,28.52
2022-08-28T15:46:56.947Z,28.40
2022-08-28T15:49:26.263Z,28.31
2022-08-28T15:51:53.954Z,28.39
2022-08-28T15:54:22.773Z,28.31
2022-08-28T15:56:52.791Z,28.23
2022-08-28T15:59:21.627Z,28.26
2022-08-28T16:01:51.494Z,28.18
2022-08-28T16:04:19.136Z,28.11
2022-08-28T16:06:47.904Z,28.27
2022-08-28T16:09:15.367Z,28.18
2022-08-28T16:11:43.978Z,28.25
2022-08-28T16:14:12.183Z,28.27
2022-08-28T16:16:40.198Z,28.17
2022-08-28T16:19:14.219Z,27.94
2022-08-28T16:21:43.133Z,27.97
2022-08-28T16:24:10.513Z,28.02
2022-08-28T16:26:40.574Z,27.98
2022-08-28T16:29:09.192Z,27.84
2022-08-28T16:31:37.011Z,27.69
2022-08-28T16:34:04.791Z,27.59
2022-08-28T16:36:33.490Z,27.65
2022-08-28T16:39:03.932Z,27.49
2022-08-28T16:41:32.120Z,27.43
2022-08-28T16:44:00.484Z,27.47
2022-08-28T16:46:28.983Z,27.69
2022-08-28T16:48:56.596Z,27.51
2022-08-28T16:51:26.937Z,27.68
2022-08-28T16:53:54.944Z,27.51
2022-08-28T16:56:24.128Z,27.65
2022-08-28T16:58:53.130Z,27.37
2022-08-28T17:01:23.880Z,27.32
2022-08-28T17:03:54.598Z,27.18
2022-08-28T17:06:28.422Z,26.93
2022-08-28T17:08:57.315Z,26.66
2022-08-28T17:11:26.556Z,26.68
2022-08-28T17:13:55.344Z,26.64
2022-08-28T17:16:24.501Z,26.54
2022-08-28T17:18:53.043Z,26.53
2022-08-28T17:21:41.319Z,26.42
2022-08-28T17:24:12.561Z,26.22
2022-08-28T17:26:41.730Z,25.97
2022-08-28T17:29:09.573Z,25.85
2022-08-28T17:31:39.065Z,25.79
2022-08-28T17:34:07.530Z,25.87
2022-08-28T17:36:38.143Z,25.84
2022-08-28T17:39:11.497Z,25.72
2022-08-28T17:41:41.892Z,25.64
2022-08-28T17:44:09.824Z,25.58
2022-08-28T17:46:38.451Z,25.49
2022-08-28T17:49:07.685Z,25.37
2022-08-28T17:51:43.760Z,25.28
2022-08-28T17:54:17.833Z,25.22
2022-08-28T17:56:46.449Z,25.20
2022-08-28T17:59:14.644Z,25.12
2022-08-28T18:01:46.011Z,25.16
2022-08-28T18:04:17.875Z,25.11
2022-08-28T18:06:50.519Z,25.01
2022-08-28T18:09:21.804Z,24.89
2022-08-28T18:11:49.307Z,24.74
2022-08-28T18:14:17.032Z,24.69
2022-08-28T18:16:44.874Z,24.71
2022-08-28T18:19:13.669Z,24.62
2022-08-28T18:21:41.328Z,24.55
2022-08-28T18:24:12.872Z,24.54
2022-08-28T18:26:42.569Z,24.41
2022-08-28T18:29:10.946Z,24.35
2022-08-28T18:31:38.803Z,24.34
2022-08-28T18:34:06.609Z,24.32
2022-08-28T18:36:34.173Z,24.31
2022-08-28T18:39:01.691Z,24.23
2022-08-28T18:41:34.519Z,24.20
2022-08-28T18:44:14.245Z,24.10
2022-08-28T18:46:43.914Z,24.10
2022-08-28T18:49:12.256Z,24.05
2022-08-28T18:51:48.339Z,24.03
2022-08-28T18:54:18.175Z,23.99
2022-08-28T18:56:48.318Z,23.96
2022-08-28T18:59:18.114Z,23.91
2022-08-28T19:01:45.722Z,23.97
2022-08-28T19:04:13.596Z,24.14
2022-08-28T19:06:41.963Z,24.15
2022-08-28T19:09:09.401Z,24.17
2022-08-28T19:11:46.896Z,24.12
2022-08-28T19:14:14.253Z,23.94
2022-08-28T19:16:41.715Z,23.85
2022-08-28T19:19:09.143Z,23.91
2022-08-28T19:21:37.914Z,23.82
2022-08-28T19:24:05.836Z,23.75
2022-08-28T19:26:33.764Z,23.69
2022-08-28T19:29:01.363Z,23.84
2022-08-28T19:31:29.589Z,23.78
2022-08-28T19:33:57.947Z,23.80
2022-08-28T19:36:27.463Z,23.78
2022-08-28T19:38:55.269Z,23.84
2022-08-28T19:41:25.344Z,23.90
2022-08-28T19:43:52.967Z,23.87
2022-08-28T19:46:20.717Z,24.03
2022-08-28T19:48:53.042Z,24.29
2022-08-28T19:51:23.912Z,24.37
2022-08-28T19:53:58.213Z,24.27
2022-08-28T19:56:31.497Z,23.99
2022-08-28T19:59:01.551Z,24.02
2022-08-28T20:01:32.030Z,23.95
2022-08-28T20:04:00.185Z,23.94
2022-08-28T20:06:30.362Z,24.17
2022-08-28T20:08:58.401Z,24.40
2022-08-28T20:11:30.260Z,24.47
2022-08-28T20:14:04.549Z,24.32
2022-08-28T20:16:37.056Z,24.18
2022-08-28T20:19:07.881Z,23.97
2022-08-28T20:21:37.925Z,24.10
2022-08-28T20:24:10.528Z,23.91
2022-08-28T20:26:38.190Z,23.83
2022-08-28T20:29:08.601Z,23.64
2022-08-28T20:31:41.104Z,23.82
2022-08-28T20:34:13.690Z,23.54
2022-08-28T20:36:42.073Z,23.38
2022-08-28T20:39:10.672Z,23.31
2022-08-28T20:41:42.313Z,23.22
2022-08-28T20:44:13.628Z,23.21
2022-08-28T20:46:42.170Z,23.19
2022-08-28T20:49:11.466Z,23.17
2022-08-28T20:51:57.713Z,23.06
2022-08-28T20:54:30.606Z,22.84
2022-08-28T20:57:02.596Z,22.69
2022-08-28T20:59:39.270Z,22.68
2022-08-28T21:02:11.544Z,22.70
2022-08-28T21:04:40.546Z,22.80
2022-08-28T21:07:08.945Z,22.65
2022-08-28T21:10:07.249Z,22.58
2022-08-28T21:12:24.599Z,22.58
2022-08-28T21:14:52.990Z,22.62
2022-08-28T21:17:29.687Z,22.57
2022-08-28T21:20:04.228Z,22.75
2022-08-28T21:22:32.810Z,23.10
2022-08-28T21:25:01.232Z,22.97
2022-08-28T21:27:28.853Z,23.09
2022-08-28T21:29:58.848Z,23.04
2022-08-28T21:32:28.423Z,23.21
2022-08-28T21:34:56.043Z,23.27
2022-08-28T21:37:23.904Z,23.13
2022-08-28T21:39:51.333Z,22.98
2022-08-28T21:42:19.826Z,22.92
2022-08-28T21:44:51.859Z,22.72
2022-08-28T21:47:23.283Z,22.57
2022-08-28T21:49:53.204Z,22.52
2022-08-28T21:52:22.198Z,22.44
2022-08-28T21:54:49.999Z,22.35
2022-08-28T21:57:19.439Z,22.33
2022-08-28T21:59:48.729Z,22.29
2022-08-28T22:02:16.282Z,22.22
2022-08-28T22:04:43.692Z,22.38
2022-08-28T22:07:14.376Z,22.35
2022-08-28T22:09:43.230Z,22.40
2022-08-28T22:12:12.666Z,22.41
2022-08-28T22:14:40.414Z,22.36
2022-08-28T22:17:11.242Z,22.32
2022-08-28T22:19:40.822Z,22.37
2022-08-28T22:22:27.510Z,22.44
2022-08-28T22:24:54.962Z,22.46
2022-08-28T22:27:22.603Z,22.50
2022-08-28T22:29:50.882Z,22.78
2022-08-28T22:32:18.712Z,22.80
2022-08-28T22:34:46.189Z,22.56
2022-08-28T22:37:13.989Z,22.50
2022-08-28T22:39:43.169Z,22.44
2022-08-28T22:42:10.962Z,22.47
2022-08-28T22:44:38.966Z,22.19
2022-08-28T22:47:07.285Z,22.06
2022-08-28T22:49:36.027Z,22.08
2022-08-28T22:52:10.609Z,22.15
2022-08-28T22:54:40.145Z,22.08
2022-08-28T22:57:08.097Z,22.16
2022-08-28T22:59:35.923Z,22.23
2022-08-28T23:02:04.148Z,22.32
2022-08-28T23:04:31.708Z,22.35
2022-08-28T23:06:59.855Z,22.30
2022-08-28T23:09:27.641Z,22.16
2022-08-28T23:11:55.080Z,22.03
2022-08-28T23:14:28.085Z,21.84
2022-08-28T23:16:56.510Z,21.77
2022-08-28T23:19:25.963Z,21.64
2022-08-28T23:21:53.928Z,21.78
2022-08-28T23:24:21.365Z,21.76
2022-08-28T23:26:49.448Z,21.76
2022-08-28T23:29:18.346Z,21.63
2022-08-28T23:31:45.989Z,21.56
2022-08-28T23:34:16.067Z,21.46
2022-08-28T23:36:43.683Z,21.31
2022-08-28T23:39:11.828Z,21.35
2022-08-28T23:41:39.578Z,21.40
2022-08-28T23:44:08.946Z,21.24
2022-08-28T23:46:41.679Z,21.32
2022-08-28T23:49:11.381Z,21.47
2022-08-28T23:51:40.698Z,21.31
2022-08-28T23:54:09.708Z,21.30
2022-08-28T23:56:38.927Z,21.29
2022-08-28T23:59:07.681Z,21.18
